createdAt,value
2022-08-09T00:00:00.857Z,19.26
2022-08-09T00:02:33.469Z,19.27
2022-08-09T00:06:16.347Z,19.13
2022-08-09T00:07:54.318Z,19.09
2022-08-09T00:10:24.509Z,19.09
2022-08-09T00:12:53.338Z,19.13
2022-08-09T00:15:35.300Z,19.07
2022-08-09T00:18:12.004Z,18.93
2022-08-09T00:20:42.585Z,18.97
2022-08-09T00:23:57.426Z,18.99
2022-08-09T00:26:08.049Z,18.98
2022-08-09T00:28:36.895Z,19.00
2022-08-09T00:31:30.402Z,19.01
2022-08-09T00:33:54.250Z,19.04
2022-08-09T00:36:29.552Z,19.06
2022-08-09T00:38:59.975Z,18.94
2022-08-09T00:44:10.201Z,18.89
2022-08-09T00:44:25.736Z,18.78
2022-08-09T00:47:04.740Z,18.59
2022-08-09T00:49:33.971Z,18.52
2022-08-09T00:52:05.478Z,18.51
2022-08-09T00:54:36.236Z,18.57
2022-08-09T00:57:08.820Z,18.60
2022-08-09T00:59:41.035Z,18.64
2022-08-09T01:02:10.514Z,18.62
2022-08-09T01:04:48.077Z,18.59
2022-08-09T01:07:21.293Z,18.57
2022-08-09T01:10:18.852Z,18.53
2022-08-09T01:12:52.797Z,18.48
2022-08-09T01:15:25.442Z,18.40
2022-08-09T01:18:00.584Z,18.39
2022-08-09T01:20:41.272Z,18.35
2022-08-09T01:24:03.190Z,18.19
2022-08-09T01:26:52.900Z,18.18
2022-08-09T01:29:41.300Z,18.10
2022-08-09T01:32:29.783Z,18.17
2022-08-09T01:35:18.236Z,18.30
2022-08-09T01:38:07.871Z,18.38
2022-08-09T01:40:43.840Z,18.39
2022-08-09T01:43:13.412Z,18.34
2022-08-09T01:45:46.419Z,18.22
2022-08-09T01:48:17.385Z,18.10
2022-08-09T01:50:49.127Z,18.05
2022-08-09T01:53:29.028Z,18.05
2022-08-09T01:55:58.458Z,18.08
2022-08-09T01:58:32.119Z,18.10
2022-08-09T02:01:02.982Z,18.14
2022-08-09T02:03:34.854Z,18.10
2022-08-09T02:06:07.270Z,18.11
2022-08-09T02:08:58.475Z,18.14
2022-08-09T02:11:42.579Z,18.05
2022-08-09T02:14:26.578Z,18.00
2022-08-09T02:16:59.755Z,17.90
2022-08-09T02:19:44.605Z,17.86
2022-08-09T02:22:27.354Z,17.90
2022-08-09T02:25:06.759Z,17.95
2022-08-09T02:27:57.457Z,17.94
2022-08-09T02:30:30.427Z,17.80
2022-08-09T02:33:01.112Z,17.73
2022-08-09T02:36:01.235Z,17.74
2022-08-09T02:38:29.783Z,17.67
2022-08-09T02:41:03.182Z,17.45
2022-08-09T02:43:53.936Z,17.43
2022-08-09T02:46:25.500Z,17.43
2022-08-09T02:48:57.697Z,17.43
2022-08-09T02:51:27.227Z,17.37
2022-08-09T02:54:00.899Z,17.33
2022-08-09T02:56:31.625Z,17.40
2022-08-09T02:59:02.550Z,17.39
2022-08-09T03:01:43.305Z,17.39
2022-08-09T03:04:28.950Z,17.39
2022-08-09T03:06:59.833Z,17.39
2022-08-09T03:09:42.837Z,17.34
2022-08-09T03:12:13.569Z,17.30
2022-08-09T03:14:43.985Z,17.22
2022-08-09T03:17:20.597Z,17.23
2022-08-09T03:20:03.675Z,17.30
2022-08-09T03:22:41.481Z,17.28
2022-08-09T03:25:26.475Z,17.21
2022-08-09T03:28:00.928Z,17.09
2022-08-09T03:30:34.072Z,17.05
2022-08-09T03:33:17.673Z,16.98
2022-08-09T03:36:13.234Z,17.03
2022-08-09T03:38:37.149Z,16.99
2022-08-09T03:41:09.368Z,17.07
2022-08-09T03:43:37.318Z,17.14
2022-08-09T03:46:20.132Z,17.17
2022-08-09T03:48:58.393Z,17.17
2022-08-09T03:51:57.589Z,17.18
2022-08-09T03:54:16.290Z,17.12
2022-08-09T03:56:46.623Z,17.11
2022-08-09T03:59:20.790Z,17.10
2022-08-09T04:01:50.374Z,17.03
2022-08-09T04:04:20.452Z,16.99
2022-08-09T04:06:52.424Z,17.07
2022-08-09T04:09:48.004Z,17.06
2022-08-09T04:12:34.684Z,17.03
2022-08-09T04:15:17.062Z,16.95
2022-08-09T04:17:51.042Z,16.87
2022-08-09T04:20:21.066Z,16.93
2022-08-09T04:22:51.202Z,16.95
2022-08-09T04:25:19.067Z,16.99
2022-08-09T04:27:49.041Z,16.86
2022-08-09T04:30:20.928Z,16.81
2022-08-09T04:32:51.947Z,16.80
2022-08-09T04:35:21.680Z,16.85
2022-08-09T04:37:50.208Z,16.97
2022-08-09T04:40:28.884Z,16.99
2022-08-09T04:43:05.591Z,16.92
2022-08-09T04:45:36.060Z,16.93
2022-08-09T04:48:21.120Z,16.99
2022-08-09T04:50:52.891Z,17.06
2022-08-09T04:53:20.642Z,17.11
2022-08-09T04:55:58.100Z,17.16
2022-08-09T04:58:27.755Z,17.07
2022-08-09T05:00:55.725Z,17.02
2022-08-09T05:03:42.706Z,17.05
2022-08-09T05:06:25.759Z,17.06
2022-08-09T05:09:00.787Z,17.07
2022-08-09T05:11:32.163Z,17.08
2022-08-09T05:14:06.245Z,17.14
2022-08-09T05:16:43.527Z,17.19
2022-08-09T05:19:14.944Z,17.28
2022-08-09T05:21:47.310Z,17.39
2022-08-09T05:24:23.136Z,17.46
2022-08-09T05:26:52.140Z,17.49
2022-08-09T05:29:22.194Z,17.55
2022-08-09T05:31:57.414Z,17.71
2022-08-09T05:34:31.315Z,17.85
2022-08-09T05:37:05.231Z,17.84
2022-08-09T05:39:35.745Z,17.95
2022-08-09T05:42:07.628Z,17.98
2022-08-09T05:44:36.654Z,18.05
2022-08-09T05:47:06.126Z,18.14
2022-08-09T05:50:25.210Z,18.15
2022-08-09T05:52:24.721Z,18.15
2022-08-09T05:54:52.914Z,18.22
2022-08-09T05:57:25.136Z,18.25
2022-08-09T06:00:13.110Z,18.39
2022-08-09T06:02:42.335Z,18.36
2022-08-09T06:05:14.470Z,18.48
2022-08-09T06:08:05.044Z,18.52
2022-08-09T06:10:39.222Z,18.42
2022-08-09T06:13:12.385Z,18.49
2022-08-09T06:15:46.797Z,18.54
2022-08-09T06:18:15.814Z,18.65
2022-08-09T06:20:54.264Z,18.74
2022-08-09T06:23:24.607Z,18.83
2022-08-09T06:26:12.373Z,18.91
2022-08-09T06:28:43.415Z,19.04
2022-08-09T06:31:11.642Z,19.11
2022-08-09T06:33:40.548Z,19.11
2022-08-09T06:36:11.911Z,19.08
2022-08-09T06:38:49.835Z,19.05
2022-08-09T06:41:20.432Z,19.19
2022-08-09T06:43:48.838Z,19.27
2022-08-09T06:46:39.705Z,19.25
2022-08-09T06:49:04.888Z,19.35
2022-08-09T06:51:33.699Z,19.39
2022-08-09T06:54:12.528Z,19.36
2022-08-09T06:56:45.626Z,19.45
2022-08-09T07:00:52.109Z,19.56
2022-08-09T07:02:04.494Z,19.62
2022-08-09T07:04:33.002Z,19.79
2022-08-09T07:07:04.697Z,19.90
2022-08-09T07:09:55.598Z,20.02
2022-08-09T07:12:23.004Z,20.04
2022-08-09T07:16:35.059Z,20.14
2022-08-09T07:17:56.421Z,20.26
2022-08-09T07:20:30.548Z,20.20
2022-08-09T07:22:59.327Z,20.25
2022-08-09T07:25:29.238Z,20.30
2022-08-09T07:27:56.986Z,20.32
2022-08-09T07:30:26.441Z,20.27
2022-08-09T07:33:00.627Z,20.33
2022-08-09T07:35:28.956Z,20.39
2022-08-09T07:38:07.383Z,20.47
2022-08-09T07:40:54.074Z,20.61
2022-08-09T07:43:29.042Z,20.75
2022-08-09T07:45:56.923Z,20.78
2022-08-09T07:48:31.632Z,20.82
2022-08-09T07:51:09.686Z,20.77
2022-08-09T07:54:04.897Z,20.79
2022-08-09T07:56:44.647Z,20.92
2022-08-09T07:59:34.030Z,20.93
2022-08-09T08:02:04.992Z,21.03
2022-08-09T08:04:33.346Z,21.04
2022-08-09T08:07:27.116Z,21.12
2022-08-09T08:09:55.272Z,21.22
2022-08-09T08:12:43.730Z,21.30
2022-08-09T08:15:14.310Z,21.49
2022-08-09T08:17:53.778Z,21.63
2022-08-09T08:20:29.054Z,21.75
2022-08-09T08:23:03.480Z,21.82
2022-08-09T08:25:44.146Z,21.80
2022-08-09T08:28:15.516Z,21.88
2022-08-09T08:30:47.551Z,21.99
2022-08-09T08:33:24.051Z,22.02
2022-08-09T08:35:59.031Z,22.04
2022-08-09T08:38:28.639Z,22.06
2022-08-09T08:40:57.233Z,22.13
2022-08-09T08:43:27.650Z,22.23
2022-08-09T08:46:03.985Z,22.28
2022-08-09T08:48:51.505Z,22.36
2022-08-09T08:51:22.600Z,22.45
2022-08-09T08:54:03.206Z,22.57
2022-08-09T08:56:35.195Z,22.71
2022-08-09T08:59:19.687Z,22.68
2022-08-09T09:01:52.058Z,22.72
2022-08-09T09:04:26.952Z,22.73
2022-08-09T09:06:58.409Z,22.84
2022-08-09T09:09:58.417Z,22.97
2022-08-09T09:12:17.121Z,23.11
2022-08-09T09:14:47.724Z,23.20
2022-08-09T09:17:16.622Z,23.19
2022-08-09T09:19:44.929Z,23.12
2022-08-09T09:22:15.851Z,23.31
2022-08-09T09:24:46.337Z,23.44
2022-08-09T09:28:02.804Z,23.49
2022-08-09T09:30:39.752Z,23.56
2022-08-09T09:33:16.525Z,23.64
2022-08-09T09:36:02.653Z,23.78
2022-08-09T09:38:45.543Z,23.86
2022-08-09T09:41:27.852Z,23.91
2022-08-09T09:44:12.821Z,23.99
2022-08-09T09:46:52.148Z,24.09
2022-08-09T09:49:31.887Z,23.97
2022-08-09T09:52:35.858Z,24.01
2022-08-09T09:55:16.027Z,24.08
2022-08-09T09:58:04.268Z,24.15
2022-08-09T10:00:54.266Z,24.28
2022-08-09T10:03:56.342Z,24.45
2022-08-09T10:06:26.732Z,24.49
2022-08-09T10:09:02.865Z,24.64
2022-08-09T10:12:07.805Z,24.71
2022-08-09T10:14:27.417Z,24.84
2022-08-09T10:17:24.113Z,24.81
2022-08-09T10:19:53.109Z,24.83
2022-08-09T10:22:33.303Z,24.88
2022-08-09T10:25:07.034Z,24.97
2022-08-09T10:27:56.309Z,24.98
2022-08-09T10:32:15.245Z,24.96
2022-08-09T10:34:04.538Z,25.10
2022-08-09T10:36:04.778Z,25.15
2022-08-09T10:38:54.946Z,25.13
2022-08-09T10:41:21.026Z,25.15
2022-08-09T10:43:59.957Z,25.22
2022-08-09T10:47:01.027Z,25.29
2022-08-09T10:49:50.459Z,25.37
2022-08-09T10:52:42.604Z,25.49
2022-08-09T10:55:26.478Z,25.55
2022-08-09T10:57:59.892Z,25.58
2022-08-09T11:00:37.477Z,25.54
2022-08-09T11:03:46.801Z,25.65
2022-08-09T11:06:22.869Z,25.81
2022-08-09T11:08:53.476Z,25.87
2022-08-09T11:11:23.428Z,25.87
2022-08-09T11:14:28.142Z,25.80
2022-08-09T11:16:56.832Z,25.82
2022-08-09T11:20:11.506Z,25.77
2022-08-09T11:23:07.218Z,25.85
2022-08-09T11:25:47.906Z,25.82
2022-08-09T11:28:38.792Z,25.97
2022-08-09T11:31:50.248Z,26.10
2022-08-09T11:34:29.672Z,26.13
2022-08-09T11:37:00.448Z,26.19
2022-08-09T11:39:37.791Z,26.23
2022-08-09T11:42:14.938Z,26.27
2022-08-09T11:44:48.281Z,26.30
2022-08-09T11:47:16.604Z,26.20
2022-08-09T11:50:54.109Z,26.10
2022-08-09T11:53:58.409Z,26.19
2022-08-09T11:56:41.904Z,26.35
2022-08-09T11:59:29.842Z,26.19
2022-08-09T12:02:18.382Z,26.33
2022-08-09T12:04:58.102Z,26.46
2022-08-09T12:07:41.269Z,26.62
2022-08-09T12:10:37.988Z,26.59
2022-08-09T12:13:00.291Z,26.51
2022-08-09T12:15:48.700Z,26.54
2022-08-09T12:18:30.089Z,26.51
2022-08-09T12:21:00.522Z,26.55
2022-08-09T12:23:56.141Z,26.60
2022-08-09T12:26:19.550Z,26.76
2022-08-09T12:28:59.795Z,26.92
2022-08-09T12:32:02.539Z,27.04
2022-08-09T12:34:35.067Z,27.00
2022-08-09T12:37:21.765Z,27.03
2022-08-09T12:40:06.776Z,27.05
2022-08-09T12:42:35.502Z,27.03
2022-08-09T12:45:32.586Z,27.04
2022-08-09T12:47:54.486Z,26.96
2022-08-09T12:50:23.642Z,27.03
2022-08-09T12:53:09.686Z,26.97
2022-08-09T12:56:15.819Z,27.05
2022-08-09T12:58:28.833Z,26.99
2022-08-09T13:00:58.199Z,27.04
2022-08-09T13:03:58.418Z,27.20
2022-08-09T13:06:34.007Z,27.10
2022-08-09T13:09:07.233Z,27.08
2022-08-09T13:11:39.093Z,27.10
2022-08-09T13:14:40.733Z,27.06
2022-08-09T13:17:01.023Z,27.19
2022-08-09T13:20:09.520Z,27.21
2022-08-09T13:23:00.204Z,27.28
2022-08-09T13:25:12.147Z,27.31
2022-08-09T13:27:48.330Z,27.31
2022-08-09T13:31:11.493Z,27.34
2022-08-09T13:33:16.919Z,27.44
2022-08-09T13:36:37.466Z,27.36
2022-08-09T13:38:58.024Z,27.26
2022-08-09T13:41:57.940Z,27.36
2022-08-09T13:44:17.102Z,27.48
2022-08-09T13:47:17.762Z,27.43
2022-08-09T13:49:37.581Z,27.61
2022-08-09T13:52:09.155Z,27.65
2022-08-09T13:54:42.920Z,27.62
2022-08-09T13:57:36.269Z,27.60
2022-08-09T14:00:06.554Z,27.70
2022-08-09T14:02:36.406Z,27.75
2022-08-09T14:05:13.500Z,27.82
2022-08-09T14:08:04.434Z,27.84
2022-08-09T14:10:46.194Z,27.91
2022-08-09T14:13:28.283Z,27.86
2022-08-09T14:16:10.256Z,27.85
2022-08-09T14:18:39.102Z,27.76
2022-08-09T14:21:17.592Z,27.72
2022-08-09T14:23:53.664Z,27.82
2022-08-09T14:26:25.186Z,27.87
2022-08-09T14:28:53.410Z,27.85
2022-08-09T14:31:23.678Z,27.69
2022-08-09T14:34:09.241Z,27.79
2022-08-09T14:36:39.763Z,27.86
2022-08-09T14:39:12.378Z,27.87
2022-08-09T14:41:41.905Z,27.82
2022-08-09T14:44:11.402Z,27.92
2022-08-09T14:47:03.175Z,27.91
2022-08-09T14:49:34.549Z,27.93
2022-08-09T14:52:08.109Z,27.85
2022-08-09T14:54:37.326Z,27.86
2022-08-09T14:57:07.945Z,27.88
2022-08-09T14:59:38.673Z,27.91
2022-08-09T15:02:07.470Z,27.92
2022-08-09T15:04:36.791Z,27.99
2022-08-09T15:07:04.800Z,27.99
2022-08-09T15:10:07.569Z,27.97
2022-08-09T15:12:30.475Z,27.95
2022-08-09T15:14:58.217Z,27.86
2022-08-09T15:17:26.417Z,27.85
2022-08-09T15:19:59.748Z,27.73
2022-08-09T15:22:30.382Z,27.66
2022-08-09T15:25:03.832Z,27.63
2022-08-09T15:27:47.680Z,27.69
2022-08-09T15:30:59.980Z,27.75
2022-08-09T15:33:07.667Z,27.72
2022-08-09T15:35:40.805Z,27.73
2022-08-09T15:38:13.000Z,27.67
2022-08-09T15:40:44.242Z,27.65
2022-08-09T15:43:13.687Z,27.66
2022-08-09T15:45:51.743Z,27.76
2022-08-09T15:48:31.769Z,27.82
2022-08-09T15:51:00.362Z,27.78
2022-08-09T15:54:04.581Z,27.69
2022-08-09T15:56:29.241Z,27.75
2022-08-09T15:58:59.490Z,27.80
2022-08-09T16:01:27.328Z,27.74
2022-08-09T16:03:59.395Z,27.69
2022-08-09T16:06:35.174Z,27.71
2022-08-09T16:09:06.501Z,27.56
2022-08-09T16:11:36.745Z,27.52
2022-08-09T16:14:08.017Z,27.58
2022-08-09T16:16:38.004Z,27.64
2022-08-09T16:19:07.752Z,27.63
2022-08-09T16:21:35.804Z,27.63
2022-08-09T16:24:04.815Z,27.52
2022-08-09T16:26:35.041Z,27.49
2022-08-09T16:29:12.046Z,27.52
2022-08-09T16:32:19.328Z,27.52
2022-08-09T16:34:29.772Z,27.47
2022-08-09T16:37:17.540Z,27.39
2022-08-09T16:39:54.483Z,27.31
2022-08-09T16:42:33.008Z,27.28
2022-08-09T16:45:02.096Z,27.37
2022-08-09T16:48:39.114Z,27.37
2022-08-09T16:50:29.818Z,27.35
2022-08-09T16:53:00.838Z,27.35
2022-08-09T16:55:44.442Z,27.35
2022-08-09T16:58:16.929Z,27.41
2022-08-09T17:00:46.626Z,27.43
2022-08-09T17:03:21.508Z,27.32
2022-08-09T17:06:07.320Z,27.21
2022-08-09T17:08:44.476Z,27.25
2022-08-09T17:11:41.138Z,27.20
2022-08-09T17:14:25.995Z,27.17
2022-08-09T17:16:59.714Z,27.20
2022-08-09T17:20:05.044Z,27.06
2022-08-09T17:22:24.116Z,27.03
2022-08-09T17:25:03.622Z,26.99
2022-08-09T17:27:32.159Z,26.94
2022-08-09T17:29:59.980Z,27.00
2022-08-09T17:32:38.042Z,26.98
2022-08-09T17:35:12.280Z,26.91
2022-08-09T17:38:14.445Z,26.93
2022-08-09T17:40:29.637Z,26.86
2022-08-09T17:42:59.201Z,26.84
2022-08-09T17:46:02.005Z,26.81
2022-08-09T17:48:28.434Z,26.77
2022-08-09T17:51:06.606Z,26.76
2022-08-09T17:53:42.967Z,26.73
2022-08-09T17:56:11.398Z,26.70
2022-08-09T17:58:42.941Z,26.66
2022-08-09T18:01:15.416Z,26.62
2022-08-09T18:03:52.591Z,26.59
2022-08-09T18:06:32.069Z,26.53
2022-08-09T18:09:03.398Z,26.44
2022-08-09T18:12:05.410Z,26.45
2022-08-09T18:14:22.134Z,26.41
2022-08-09T18:16:50.056Z,26.37
2022-08-09T18:21:01.228Z,26.36
2022-08-09T18:22:16.666Z,26.31
2022-08-09T18:24:45.749Z,26.29
2022-08-09T18:27:33.662Z,26.21
2022-08-09T18:30:36.362Z,26.20
2022-08-09T18:32:54.462Z,26.15
2022-08-09T18:36:00.031Z,26.08
2022-08-09T18:38:13.074Z,25.98
2022-08-09T18:40:41.084Z,25.97
2022-08-09T18:43:08.906Z,25.87
2022-08-09T18:46:46.546Z,25.89
2022-08-09T18:48:25.525Z,25.82
2022-08-09T18:50:59.896Z,25.77
2022-08-09T18:53:31.489Z,25.76
2022-08-09T18:56:17.622Z,25.71
2022-08-09T18:58:47.930Z,25.69
2022-08-09T19:01:23.117Z,25.67
2022-08-09T19:03:54.638Z,25.61
2022-08-09T19:06:30.288Z,25.62
2022-08-09T19:09:02.689Z,25.54
2022-08-09T19:11:37.983Z,25.44
2022-08-09T19:14:06.648Z,25.41
2022-08-09T19:16:36.278Z,25.38
2022-08-09T19:19:25.080Z,25.35
2022-08-09T19:22:06.713Z,25.28
2022-08-09T19:24:39.669Z,25.20
2022-08-09T19:27:23.044Z,25.07
2022-08-09T19:30:24.591Z,24.99
2022-08-09T19:32:41.539Z,24.96
2022-08-09T19:35:09.929Z,24.93
2022-08-09T19:37:54.418Z,24.92
2022-08-09T19:40:33.113Z,24.86
2022-08-09T19:43:01.910Z,24.78
2022-08-09T19:45:40.422Z,24.70
2022-08-09T19:48:11.047Z,24.74
2022-08-09T19:50:51.551Z,24.73
2022-08-09T19:53:26.480Z,24.64
2022-08-09T19:56:03.205Z,24.61
2022-08-09T19:58:34.911Z,24.61
2022-08-09T20:01:04.011Z,24.57
2022-08-09T20:04:17.954Z,24.55
2022-08-09T20:06:23.300Z,24.49
2022-08-09T20:08:56.912Z,24.46
2022-08-09T20:11:25.798Z,24.31
2022-08-09T20:13:54.818Z,24.27
2022-08-09T20:16:33.117Z,24.25
2022-08-09T20:19:46.455Z,24.17
2022-08-09T20:21:57.562Z,24.14
2022-08-09T20:24:33.694Z,24.09
2022-08-09T20:27:07.841Z,24.07
2022-08-09T20:29:37.940Z,23.99
2022-08-09T20:32:31.132Z,23.95
2022-08-09T20:34:55.005Z,23.90
2022-08-09T20:37:22.950Z,23.89
2022-08-09T20:40:15.691Z,23.82
2022-08-09T20:42:40.292Z,23.71
2022-08-09T20:45:59.895Z,23.72
2022-08-09T20:48:10.961Z,23.70
2022-08-09T20:50:47.036Z,23.67
2022-08-09T20:53:22.788Z,23.62
2022-08-09T20:56:06.358Z,23.62
2022-08-09T20:58:37.993Z,23.56
2022-08-09T21:01:32.777Z,23.54
2022-08-09T21:05:49.070Z,23.49
2022-08-09T21:06:45.520Z,23.41
2022-08-09T21:09:14.403Z,23.31
2022-08-09T21:14:36.975Z,23.22
2022-08-09T21:18:24.130Z,23.18
2022-08-09T21:20:14.550Z,23.11
2022-08-09T21:22:47.054Z,23.08
2022-08-09T21:25:38.542Z,23.01
2022-08-09T21:28:11.861Z,23.02
2022-08-09T21:30:40.765Z,23.00
2022-08-09T21:33:08.781Z,23.04
2022-08-09T21:35:39.347Z,22.94
2022-08-09T21:38:21.036Z,22.93
2022-08-09T21:40:59.081Z,22.90
2022-08-09T21:43:56.167Z,22.79
2022-08-09T21:46:16.342Z,22.78
2022-08-09T21:48:48.359Z,22.75
2022-08-09T21:51:24.223Z,22.69
2022-08-09T21:54:03.941Z,22.62
2022-08-09T21:56:42.786Z,22.61
2022-08-09T21:59:20.870Z,22.62
2022-08-09T22:01:59.220Z,22.57
2022-08-09T22:04:55.015Z,22.52
2022-08-09T22:07:35.176Z,22.51
2022-08-09T22:10:06.509Z,22.52
2022-08-09T22:12:35.103Z,22.48
2022-08-09T22:15:16.491Z,22.41
2022-08-09T22:17:46.554Z,22.35
2022-08-09T22:20:21.669Z,22.30
2022-08-09T22:22:55.128Z,22.30
2022-08-09T22:26:07.414Z,22.34
2022-08-09T22:28:11.438Z,22.30
2022-08-09T22:30:48.590Z,22.14
2022-08-09T22:33:17.189Z,22.17
2022-08-09T22:36:00.876Z,22.21
2022-08-09T22:38:30.603Z,22.08
2022-08-09T22:40:59.268Z,22.09
2022-08-09T22:44:03.275Z,22.00
2022-08-09T22:48:16.603Z,21.91
2022-08-09T22:49:09.632Z,21.95
2022-08-09T22:51:38.393Z,21.84
2022-08-09T22:54:10.882Z,21.82
2022-08-09T22:56:41.624Z,21.83
2022-08-09T22:59:58.289Z,21.77
2022-08-09T23:01:59.260Z,21.74
2022-08-09T23:04:27.035Z,21.77
2022-08-09T23:07:17.780Z,21.65
2022-08-09T23:10:06.316Z,21.41
2022-08-09T23:12:34.129Z,21.46
2022-08-09T23:15:01.915Z,21.53
2022-08-09T23:17:31.218Z,21.54
2022-08-09T23:20:06.790Z,21.58
2022-08-09T23:22:36.051Z,21.48
2022-08-09T23:25:04.088Z,21.40
2022-08-09T23:27:32.051Z,21.34
2022-08-09T23:29:59.976Z,21.37
2022-08-09T23:32:27.712Z,21.37
2022-08-09T23:34:56.896Z,21.26
2022-08-09T23:37:25.505Z,21.29
2022-08-09T23:39:53.604Z,21.28
2022-08-09T23:42:21.368Z,21.27
2022-08-09T23:44:49.113Z,21.23
2022-08-09T23:47:17.021Z,21.14
2022-08-09T23:49:44.762Z,21.11
2022-08-09T23:52:13.923Z,21.10
2022-08-09T23:54:45.351Z,21.03
2022-08-09T23:57:13.471Z,20.95
